USTRANSCOM 7656


PHNL
Daniel K Inouye International Airport
Honolulu, Hawaii, US
PGUM
Guam International Airport
Guam, , GU

Activity Log

Date Flight Route Aircraft Duration
No Flights Yet

Route Details

Aircraft Information
Primary: Boeing 757-200SF
Backup: Not Available
Route Data
Distance: 3303nm
Sched. Duration: 7h 45m
Avg. Duration: 0h 00m (-745m)
Times Flown: 0
Recm'd Route: KEOLA2 KATHS HOOPA A450 DEWSS A450 UNZ
Planned Altitude: 34,000ft
Origin Wx: PHNL 151853Z 07011KT 10SM FEW025 SCT035 SCT250 28/19 A3000 RMK AO2 SLP160 T02780194
Dest. Wx: PGUM 151854Z 06008KT 10SM CLR 28/24 A2984 RMK AO2 SLP096 T02780244
Notes: USTRANSCOM CONTRACT FLIGHT | PAYLOAD RESTRICTED | ETOPS

Financial History
Total Freight: 0lbs
Average Load: 0lbs/flt
Fuel Used: 0lbs
Avg. Fuel Used: 0lbs/flt
Fuel Expense: $0
Avg. Fuel Expense: $0
Avg. Fuel Cost: $0/lbs
Total Gross Income: $0
Pilot Pay: $0
Total Expenses: $0
Total Revenue: $0
Average Revenue: $0